PADU Airport Information

Runway Information
Runway 12 Length 3900 ft width 100 ft
Elevation 22 ft Threshold 100 ft Heading 136
Runway 30 Length 3900 ft Width 100 ft
Elevation 13 ft Threshold 101 ft Heading 316
Airport Frequencies
Type AWOS Name AWOS 3 Frequency 125.8 MHZ
Type CNTR Name ANCHORAGE Frequency 121.4 MHZ
Type CTAF Name CTAF Frequency 122.6 MHZ
Type FSS Name COLD BAY R Frequency 122.6 MHZ
Type MISC Name DUTCH WX Frequency 129.5 MHZ
Airport Navaids
Type NDB-DME Name Dutch Harbor Frequency 283 KHZ
Airport Weather Information & NOTAM
ADDS - METARS form results

(1802 UTC 16 November 2018)
Data provider http://aviationweather.gov/metar/data/
 
METAR text: PADU 161756Z 16007KT 10SM OVC065 06/03 A2955 RMK AO2 SLP011 T00610028 10067 20033 57019
Conditions at: PADU (DUTCH HARBOR , AK, US) observed 1756 UTC 16 November 2018
Temperature: 6.1°C (43°F)
Dewpoint: 2.8°C (37°F) [RH = 79%]
Pressure (altimeter): 29.55 inches Hg (1000.8 mb)
[Sea-level pressure: 1001.1 mb]
Winds: from the SSE (160 degrees) at 8 MPH (7 knots; 3.6 m/s)
Visibility: 10 or more miles (16+ km)
Ceiling: 6500 feet AGL
Clouds: overcast cloud deck at 6500 feet AGL
Weather: no significant weather observed at this time

METAR text: PADU 161738Z 15008KT 10SM SCT023 OVC065 06/03 A2956 RMK AO2
Conditions at: PADU (DUTCH HARBOR , AK, US) observed 1738 UTC 16 November 2018
Temperature: 6.0°C (43°F)
Dewpoint: 3.0°C (37°F) [RH = 81%]
Pressure (altimeter): 29.56 inches Hg (1001.1 mb)
Winds: from the SSE (150 degrees) at 9 MPH (8 knots; 4.1 m/s)
Visibility: 10 or more miles (16+ km)
Ceiling: 6500 feet AGL
Clouds: scattered clouds at 2300 feet AGL
overcast cloud deck at 6500 feet AGL
Weather: no significant weather observed at this time

METAR text: PADU 161715Z 15007KT 10SM BKN025 OVC070 06/03 A2956 RMK AO2
Conditions at: PADU (DUTCH HARBOR , AK, US) observed 1715 UTC 16 November 2018
Temperature: 6.0°C (43°F)
Dewpoint: 3.0°C (37°F) [RH = 81%]
Pressure (altimeter): 29.56 inches Hg (1001.1 mb)
Winds: from the SSE (150 degrees) at 8 MPH (7 knots; 3.6 m/s)
Visibility: 10 or more miles (16+ km)
Ceiling: 2500 feet AGL
Clouds: broken clouds at 2500 feet AGL
overcast cloud deck at 7000 feet AGL
Weather: no significant weather observed at this time

Forecast for: PADU (DUTCH HARBOR , AK, US)
Text: PADU 161730Z 1618/1718 VRB06KT P6SM VCSH SCT025
Forecast period: 1800 UTC 16 November 2018 to 0200 UTC 17 November 2018
Forecast type: FROM: standard forecast or significant change
Winds: variable direction winds at 7 MPH (6 knots; 3.1 m/s)
Visibility: 6 or more miles 10+ km)
Ceiling: at least 12,000 feet AGL
Clouds: scattered clouds at 2500 feet AGL
Weather: VCSH  (showers in vicinity)
Text: TEMPO 1618/1621 BKN025
Forecast period: 1800 to 2100 UTC 16 November 2018
Forecast type: TEMPORARY: The following changes expected for less than half the time period
Visibility: missing
Ceiling: 2500 feet AGL
Clouds: broken clouds at 2500 feet AGL
Weather: no significant weather forecast for this period
Text: FM170200 16008KT 4SM -RA BR OVC011
Forecast period: 0200 to 1300 UTC 17 November 2018
Forecast type: FROM: standard forecast or significant change
Winds: from the SSE (160 degrees) at 9 MPH (8 knots; 4.1 m/s)
Visibility: 4 miles (6 km)
Ceiling: 1100 feet AGL
Clouds: overcast cloud deck at 1100 feet AGL
Weather: -RA BR  (light rain, mist)
Text: FM171300 29006KT 6SM BR OVC015
Forecast period: 1300 to 1800 UTC 17 November 2018
Forecast type: FROM: standard forecast or significant change
Winds: from the WNW (290 degrees) at 7 MPH (6 knots; 3.1 m/s)
Visibility: 6 miles (10 km)
Ceiling: 1500 feet AGL
Clouds: overcast cloud deck at 1500 feet AGL
Weather: BR  (mist)